Terminal Aerodrome Forecast
Issued by NWS Wilmington, OH

Current Version | Previous Version | Graphics & Text | Print | Product List | Glossary On
Versions: 1 2 3 4 5 6 7 8 9 10 11 12 13 14 15
831
FTUS41 KILN 181136
TAFCMH
TAF
KCMH 181136Z 1812/1912 VRB04KT P6SM SCT150
     FM181400 16006KT P6SM BKN060
     FM182200 13008KT P6SM VCSH OVC035
     FM190000 03008KT P6SM -SHRA OVC015
     FM190300 30015G24KT P6SM VCSH OVC015
     FM190700 32014G24KT P6SM -SHSN OVC008=

USA.gov is the U.S. government's official web portal to all federal, state and local government web resources and services.